Gray Gables, Washington
Current Conditions -  °F | °C
As of 10:53 AM on Thursday 30 Oct 2014 (Local Time) from KHQM Reporting Station
Haze Haze  
Wind Chill: 56°   Ceiling: 2500
Heat Index: 56°   Visibility: 6mi
Dew Point: 55°   Wind: 8mph
Humidity: 97%   Direction: 70°ENE
Pressure: 29.8"   Gusts: NA
Location:  47.0202°N, 123.878°W
Report Text: KHQM 301753Z AUTO 07007KT 6SM BR OVC025 13/13 A2980 RMK AO2 RAB16E30 SLP095 P0001 60016 T01330128 10133 20122 58006
Loading
Personal Weather Stations






























Interactive Weather Map
Tropical Storm Tracking
New forecast layout! Learn more

10-Day Weather Forecast

Advertisements
Track Severe Weather on mobile